sensor_id;sensor_type;location;lat;lon;timestamp;pressure;altitude;pressure_sealevel;temperature;humidity
35910;BME280;22004;49.120;-0.200;2023-09-18T17:13:44;100709.44;;;18.65;84.77
35910;BME280;22004;49.120;-0.200;2023-09-18T17:16:09;100720.59;;;18.33;84.65
35910;BME280;22004;49.120;-0.200;2023-09-18T17:18:35;100727.81;;;18.39;85.55
35910;BME280;22004;49.120;-0.200;2023-09-18T17:21:03;100717.31;;;18.43;86.72
35910;BME280;22004;49.120;-0.200;2023-09-18T17:23:28;100719.66;;;18.27;85.00
35910;BME280;22004;49.120;-0.200;2023-09-18T17:25:54;100729.25;;;18.42;86.81
35910;BME280;22004;49.120;-0.200;2023-09-18T17:28:19;100726.19;;;18.08;86.20
35910;BME280;22004;49.120;-0.200;2023-09-18T17:30:44;100726.66;;;18.05;86.44
35910;BME280;22004;49.120;-0.200;2023-09-18T17:33:11;100728.59;;;17.86;86.48
35910;BME280;22004;49.120;-0.200;2023-09-18T17:35:37;100727.16;;;18.14;87.15
35910;BME280;22004;49.120;-0.200;2023-09-18T17:38:03;100722.69;;;18.19;86.28
35910;BME280;22004;49.120;-0.200;2023-09-18T17:40:28;100741.97;;;18.29;88.07
35910;BME280;22004;49.120;-0.200;2023-09-18T17:42:54;100744.50;;;18.43;88.39
35910;BME280;22004;49.120;-0.200;2023-09-18T17:45:19;100744.94;;;18.28;88.16
35910;BME280;22004;49.120;-0.200;2023-09-18T17:47:45;100748.34;;;18.23;86.62
35910;BME280;22004;49.120;-0.200;2023-09-18T17:50:11;100755.91;;;18.21;87.71
35910;BME280;22004;49.120;-0.200;2023-09-18T17:52:37;100775.00;;;18.15;86.51
35910;BME280;22004;49.120;-0.200;2023-09-18T17:55:03;100779.34;;;18.34;88.27
35910;BME280;22004;49.120;-0.200;2023-09-18T17:57:31;100788.00;;;18.13;89.40
35910;BME280;22004;49.120;-0.200;2023-09-18T17:59:59;100810.84;;;18.23;90.04
35910;BME280;22004;49.120;-0.200;2023-09-18T18:02:25;100804.41;;;17.88;92.54
35910;BME280;22004;49.120;-0.200;2023-09-18T18:04:50;100792.09;;;17.85;93.28
35910;BME280;22004;49.120;-0.200;2023-09-18T18:07:17;100803.63;;;18.17;92.62
35910;BME280;22004;49.120;-0.200;2023-09-18T18:09:43;100801.19;;;17.72;93.26
35910;BME280;22004;49.120;-0.200;2023-09-18T18:12:08;100809.16;;;17.92;94.17
35910;BME280;22004;49.120;-0.200;2023-09-18T18:14:33;100805.38;;;17.93;93.12
35910;BME280;22004;49.120;-0.200;2023-09-18T18:16:59;100809.69;;;17.39;94.67
35910;BME280;22004;49.120;-0.200;2023-09-18T18:19:26;100810.81;;;17.93;94.01
35910;BME280;22004;49.120;-0.200;2023-09-18T18:21:51;100817.56;;;17.66;93.96
35910;BME280;22004;49.120;-0.200;2023-09-18T18:24:17;100819.88;;;17.44;94.15
35910;BME280;22004;49.120;-0.200;2023-09-18T18:26:42;100818.88;;;18.00;94.07
35910;BME280;22004;49.120;-0.200;2023-09-18T18:29:07;100823.72;;;17.36;93.14
35910;BME280;22004;49.120;-0.200;2023-09-18T18:31:33;100822.69;;;17.55;92.30
35910;BME280;22004;49.120;-0.200;2023-09-18T18:33:59;100843.69;;;17.85;92.79
35910;BME280;22004;49.120;-0.200;2023-09-18T18:36:28;100847.94;;;17.81;94.49
35910;BME280;22004;49.120;-0.200;2023-09-18T18:38:57;100857.59;;;17.77;93.47
35910;BME280;22004;49.120;-0.200;2023-09-18T18:41:24;100856.72;;;17.33;91.13
35910;BME280;22004;49.120;-0.200;2023-09-18T18:43:50;100869.88;;;17.79;93.18
35910;BME280;22004;49.120;-0.200;2023-09-18T18:46:16;100876.22;;;17.92;92.64
35910;BME280;22004;49.120;-0.200;2023-09-18T18:48:41;100878.94;;;17.92;91.89
35910;BME280;22004;49.120;-0.200;2023-09-18T18:51:11;100879.19;;;17.90;91.13
35910;BME280;22004;49.120;-0.200;2023-09-18T18:53:38;100894.03;;;17.88;93.46
35910;BME280;22004;49.120;-0.200;2023-09-18T18:56:03;100901.41;;;17.99;92.84
35910;BME280;22004;49.120;-0.200;2023-09-18T18:58:29;100906.81;;;18.05;91.92
35910;BME280;22004;49.120;-0.200;2023-09-18T19:01:02;100916.25;;;17.78;90.97
35910;BME280;22004;49.120;-0.200;2023-09-18T19:03:29;100920.06;;;17.95;91.40
35910;BME280;22004;49.120;-0.200;2023-09-18T19:05:59;100927.03;;;17.60;93.32
35910;BME280;22004;49.120;-0.200;2023-09-18T19:08:28;100928.59;;;17.49;90.23
35910;BME280;22004;49.120;-0.200;2023-09-18T19:10:54;100937.91;;;17.60;91.79
35910;BME280;22004;49.120;-0.200;2023-09-18T19:13:20;100950.16;;;17.44;93.12
35910;BME280;22004;49.120;-0.200;2023-09-18T19:15:46;100943.25;;;17.73;93.02
35910;BME280;22004;49.120;-0.200;2023-09-18T19:18:13;100949.31;;;17.68;92.89
35910;BME280;22004;49.120;-0.200;2023-09-18T19:20:38;100953.41;;;17.27;93.23
35910;BME280;22004;49.120;-0.200;2023-09-18T19:23:03;100961.06;;;17.62;93.91
35910;BME280;22004;49.120;-0.200;2023-09-18T19:25:32;100962.06;;;17.68;94.43
35910;BME280;22004;49.120;-0.200;2023-09-18T19:28:01;100975.31;;;16.94;92.20
35910;BME280;22004;49.120;-0.200;2023-09-18T19:30:27;100974.78;;;17.74;94.43
35910;BME280;22004;49.120;-0.200;2023-09-18T19:32:52;100985.44;;;17.69;93.78
35910;BME280;22004;49.120;-0.200;2023-09-18T19:35:18;100983.56;;;17.69;93.07
35910;BME280;22004;49.120;-0.200;2023-09-18T19:37:43;100985.53;;;17.30;93.08
35910;BME280;22004;49.120;-0.200;2023-09-18T19:40:09;100994.47;;;17.06;93.58
35910;BME280;22004;49.120;-0.200;2023-09-18T19:42:36;100997.69;;;17.53;93.91
35910;BME280;22004;49.120;-0.200;2023-09-18T19:45:01;100998.25;;;17.62;94.57
35910;BME280;22004;49.120;-0.200;2023-09-18T19:47:29;100998.03;;;17.63;93.82
35910;BME280;22004;49.120;-0.200;2023-09-18T19:49:54;100993.94;;;17.22;93.22
35910;BME280;22004;49.120;-0.200;2023-09-18T19:52:20;101007.84;;;17.64;93.63
35910;BME280;22004;49.120;-0.200;2023-09-18T19:54:47;101002.69;;;17.56;93.61
35910;BME280;22004;49.120;-0.200;2023-09-18T19:57:13;101001.94;;;17.74;93.77
35910;BME280;22004;49.120;-0.200;2023-09-18T19:59:39;101003.84;;;17.67;94.37
35910;BME280;22004;49.120;-0.200;2023-09-18T20:02:06;101006.75;;;17.72;94.44
35910;BME280;22004;49.120;-0.200;2023-09-18T20:04:32;101013.19;;;17.77;93.81
35910;BME280;22004;49.120;-0.200;2023-09-18T20:06:58;101019.34;;;17.60;93.35
35910;BME280;22004;49.120;-0.200;2023-09-18T20:09:24;101025.75;;;17.72;94.11
35910;BME280;22004;49.120;-0.200;2023-09-18T20:11:50;101033.72;;;17.67;94.60
35910;BME280;22004;49.120;-0.200;2023-09-18T20:14:16;101036.34;;;17.17;94.41
35910;BME280;22004;49.120;-0.200;2023-09-18T20:16:41;101041.34;;;17.51;95.86
35910;BME280;22004;49.120;-0.200;2023-09-18T20:19:07;101041.19;;;17.40;94.29
35910;BME280;22004;49.120;-0.200;2023-09-18T20:21:39;101042.94;;;17.66;94.54
35910;BME280;22004;49.120;-0.200;2023-09-18T20:24:05;101042.94;;;17.59;94.49
35910;BME280;22004;49.120;-0.200;2023-09-18T20:26:30;101032.09;;;17.59;94.03
35910;BME280;22004;49.120;-0.200;2023-09-18T20:28:56;101038.84;;;17.50;95.06
35910;BME280;22004;49.120;-0.200;2023-09-18T20:31:21;101042.75;;;17.61;94.67
35910;BME280;22004;49.120;-0.200;2023-09-18T20:33:48;101044.59;;;17.67;95.10
35910;BME280;22004;49.120;-0.200;2023-09-18T20:36:14;101033.72;;;17.67;93.33
35910;BME280;22004;49.120;-0.200;2023-09-18T20:38:39;101032.91;;;17.60;94.02
35910;BME280;22004;49.120;-0.200;2023-09-18T20:41:04;101043.06;;;17.77;94.77
35910;BME280;22004;49.120;-0.200;2023-09-18T20:43:30;101044.75;;;17.72;95.60
35910;BME280;22004;49.120;-0.200;2023-09-18T20:45:59;101040.06;;;17.54;94.72
35910;BME280;22004;49.120;-0.200;2023-09-18T20:48:26;101041.13;;;17.21;91.82
35910;BME280;22004;49.120;-0.200;2023-09-18T20:50:51;101040.19;;;16.96;94.67
35910;BME280;22004;49.120;-0.200;2023-09-18T20:53:16;101044.25;;;17.56;95.95
35910;BME280;22004;49.120;-0.200;2023-09-18T20:55:43;101045.41;;;17.36;96.33
35910;BME280;22004;49.120;-0.200;2023-09-18T20:58:09;101048.59;;;17.57;95.61
35910;BME280;22004;49.120;-0.200;2023-09-18T21:00:34;101054.09;;;17.51;94.20
35910;BME280;22004;49.120;-0.200;2023-09-18T21:03:03;101058.13;;;17.42;93.71
35910;BME280;22004;49.120;-0.200;2023-09-18T21:05:29;101057.72;;;17.38;94.55
35910;BME280;22004;49.120;-0.200;2023-09-18T21:07:54;101058.50;;;17.07;93.05
35910;BME280;22004;49.120;-0.200;2023-09-18T21:10:20;101059.47;;;16.61;93.94
35910;BME280;22004;49.120;-0.200;2023-09-18T21:12:45;101076.03;;;17.04;96.27
35910;BME280;22004;49.120;-0.200;2023-09-18T21:15:10;101062.38;;;17.24;92.90
35910;BME280;22004;49.120;-0.200;2023-09-18T21:17:36;101069.31;;;17.14;92.40
35910;BME280;22004;49.120;-0.200;2023-09-18T21:20:01;101071.03;;;17.46;95.15
35910;BME280;22004;49.120;-0.200;2023-09-18T21:22:29;101064.94;;;17.13;91.13
35910;BME280;22004;49.120;-0.200;2023-09-18T21:24:54;101074.00;;;17.38;94.35
35910;BME280;22004;49.120;-0.200;2023-09-18T21:27:20;101075.53;;;16.76;92.75
35910;BME280;22004;49.120;-0.200;2023-09-18T21:29:46;101082.00;;;16.62;92.98
35910;BME280;22004;49.120;-0.200;2023-09-18T21:32:11;101081.38;;;17.24;93.60
35910;BME280;22004;49.120;-0.200;2023-09-18T21:34:37;101074.16;;;17.43;95.27
35910;BME280;22004;49.120;-0.200;2023-09-18T21:37:02;101089.41;;;17.44;93.50
35910;BME280;22004;49.120;-0.200;2023-09-18T21:39:27;101095.19;;;17.16;92.19
35910;BME280;22004;49.120;-0.200;2023-09-18T21:41:53;101093.00;;;16.87;92.94
35910;BME280;22004;49.120;-0.200;2023-09-18T21:44:18;101097.72;;;17.49;96.19
35910;BME280;22004;49.120;-0.200;2023-09-18T21:46:43;101091.66;;;17.09;92.86
35910;BME280;22004;49.120;-0.200;2023-09-18T21:49:10;101096.47;;;17.00;91.69
35910;BME280;22004;49.120;-0.200;2023-09-18T21:51:35;101090.91;;;16.89;88.62
35910;BME280;22004;49.120;-0.200;2023-09-18T21:54:07;101094.19;;;17.04;96.12
35910;BME280;22004;49.120;-0.200;2023-09-18T21:56:34;101091.63;;;17.22;93.31
35910;BME280;22004;49.120;-0.200;2023-09-18T21:59:00;101097.75;;;16.98;91.90
35910;BME280;22004;49.120;-0.200;2023-09-18T22:01:28;101102.28;;;17.17;94.89
35910;BME280;22004;49.120;-0.200;2023-09-18T22:03:54;101102.88;;;17.19;93.51
35910;BME280;22004;49.120;-0.200;2023-09-18T22:06:20;101108.31;;;17.26;91.54
35910;BME280;22004;49.120;-0.200;2023-09-18T22:08:45;101112.41;;;16.70;92.31
35910;BME280;22004;49.120;-0.200;2023-09-18T22:11:11;101107.41;;;16.67;92.96
35910;BME280;22004;49.120;-0.200;2023-09-18T22:13:36;101103.16;;;17.11;94.79
35910;BME280;22004;49.120;-0.200;2023-09-18T22:16:02;101107.16;;;16.95;92.69
35910;BME280;22004;49.120;-0.200;2023-09-18T22:18:29;101112.31;;;17.10;90.49
35910;BME280;22004;49.120;-0.200;2023-09-18T22:20:54;101107.41;;;16.87;90.69
35910;BME280;22004;49.120;-0.200;2023-09-18T22:23:20;101108.88;;;16.63;94.85
35910;BME280;22004;49.120;-0.200;2023-09-18T22:25:46;101118.00;;;16.95;92.79
35910;BME280;22004;49.120;-0.200;2023-09-18T22:28:11;101122.88;;;17.31;94.67
35910;BME280;22004;49.120;-0.200;2023-09-18T22:30:36;101127.22;;;16.68;90.29
35910;BME280;22004;49.120;-0.200;2023-09-18T22:33:05;101126.00;;;17.28;95.10
35910;BME280;22004;49.120;-0.200;2023-09-18T22:35:32;101129.81;;;17.21;96.47
35910;BME280;22004;49.120;-0.200;2023-09-18T22:38:05;101129.13;;;17.32;94.73
35910;BME280;22004;49.120;-0.200;2023-09-18T22:54:52;101137.50;;;17.30;95.69
35910;BME280;22004;49.120;-0.200;2023-09-18T22:57:19;101145.91;;;17.16;94.47
35910;BME280;22004;49.120;-0.200;2023-09-18T22:59:47;101153.38;;;17.20;95.65
35910;BME280;22004;49.120;-0.200;2023-09-18T23:02:15;101143.00;;;17.11;95.08
35910;BME280;22004;49.120;-0.200;2023-09-18T23:04:41;101145.84;;;17.29;95.18
35910;BME280;22004;49.120;-0.200;2023-09-18T23:07:07;101146.59;;;16.91;92.28
35910;BME280;22004;49.120;-0.200;2023-09-18T23:09:33;101140.53;;;17.02;95.53
35910;BME280;22004;49.120;-0.200;2023-09-18T23:11:58;101138.06;;;16.54;91.58
35910;BME280;22004;49.120;-0.200;2023-09-18T23:14:24;101157.00;;;16.94;92.93
35910;BME280;22004;49.120;-0.200;2023-09-18T23:16:49;101155.13;;;16.95;94.15
35910;BME280;22004;49.120;-0.200;2023-09-18T23:19:15;101146.75;;;17.10;94.58
35910;BME280;22004;49.120;-0.200;2023-09-18T23:21:40;101142.34;;;17.22;95.48
35910;BME280;22004;49.120;-0.200;2023-09-18T23:24:07;101147.00;;;17.01;92.48
35910;BME280;22004;49.120;-0.200;2023-09-18T23:26:36;101154.88;;;17.16;96.08
35910;BME280;22004;49.120;-0.200;2023-09-18T23:29:04;101148.50;;;16.71;95.12
35910;BME280;22004;49.120;-0.200;2023-09-18T23:31:35;101142.66;;;16.87;92.60
35910;BME280;22004;49.120;-0.200;2023-09-18T23:34:02;101141.59;;;16.68;94.34
35910;BME280;22004;49.120;-0.200;2023-09-18T23:36:31;101158.47;;;17.03;96.12
35910;BME280;22004;49.120;-0.200;2023-09-18T23:38:57;101155.72;;;17.10;95.31
35910;BME280;22004;49.120;-0.200;2023-09-18T23:41:28;101156.78;;;17.02;96.40
35910;BME280;22004;49.120;-0.200;2023-09-18T23:43:53;101170.34;;;17.02;96.41
35910;BME280;22004;49.120;-0.200;2023-09-18T23:46:20;101161.13;;;17.17;96.18
35910;BME280;22004;49.120;-0.200;2023-09-18T23:48:50;101160.94;;;17.05;93.44
35910;BME280;22004;49.120;-0.200;2023-09-18T23:51:16;101163.91;;;16.70;96.54
35910;BME280;22004;49.120;-0.200;2023-09-18T23:53:41;101164.50;;;17.05;96.06
35910;BME280;22004;49.120;-0.200;2023-09-18T23:56:06;101163.50;;;16.87;92.37
35910;BME280;22004;49.120;-0.200;2023-09-18T23:58:34;101155.38;;;16.20;91.62
